sensor_id;sensor_type;location;lat;lon;timestamp;P1;durP1;ratioP1;P2;durP2;ratioP2
20649;SDS011;10484;48.736;9.332;2022-11-11T00:00:25;6.73;;;4.70;;
20649;SDS011;10484;48.736;9.332;2022-11-11T00:02:50;11.47;;;5.40;;
20649;SDS011;10484;48.736;9.332;2022-11-11T00:05:18;10.45;;;4.95;;
20649;SDS011;10484;48.736;9.332;2022-11-11T00:07:45;9.00;;;4.80;;
20649;SDS011;10484;48.736;9.332;2022-11-11T00:10:11;7.20;;;4.53;;
20649;SDS011;10484;48.736;9.332;2022-11-11T00:12:37;8.33;;;4.33;;
20649;SDS011;10484;48.736;9.332;2022-11-11T00:15:02;7.07;;;4.20;;
20649;SDS011;10484;48.736;9.332;2022-11-11T00:17:28;5.40;;;3.92;;
20649;SDS011;10484;48.736;9.332;2022-11-11T00:20:29;4.95;;;3.85;;
20649;SDS011;10484;48.736;9.332;2022-11-11T00:23:19;11.13;;;4.93;;
20649;SDS011;10484;48.736;9.332;2022-11-11T00:26:07;6.70;;;4.13;;
20649;SDS011;10484;48.736;9.332;2022-11-11T00:28:35;4.57;;;3.83;;
20649;SDS011;10484;48.736;9.332;2022-11-11T00:31:01;5.37;;;3.73;;
20649;SDS011;10484;48.736;9.332;2022-11-11T00:33:27;6.68;;;4.15;;
20649;SDS011;10484;48.736;9.332;2022-11-11T00:35:53;7.73;;;4.57;;
20649;SDS011;10484;48.736;9.332;2022-11-11T00:38:19;6.03;;;3.70;;
20649;SDS011;10484;48.736;9.332;2022-11-11T00:41:24;6.55;;;3.38;;
20649;SDS011;10484;48.736;9.332;2022-11-11T00:43:51;5.57;;;3.95;;
20649;SDS011;10484;48.736;9.332;2022-11-11T00:46:16;5.80;;;4.67;;
20649;SDS011;10484;48.736;9.332;2022-11-11T00:49:01;6.35;;;4.18;;
20649;SDS011;10484;48.736;9.332;2022-11-11T00:51:45;6.35;;;3.78;;
20649;SDS011;10484;48.736;9.332;2022-11-11T00:54:11;5.60;;;4.40;;
20649;SDS011;10484;48.736;9.332;2022-11-11T00:56:37;6.50;;;3.50;;
20649;SDS011;10484;48.736;9.332;2022-11-11T00:59:03;5.68;;;4.40;;
20649;SDS011;10484;48.736;9.332;2022-11-11T01:01:31;5.57;;;4.28;;
20649;SDS011;10484;48.736;9.332;2022-11-11T01:03:57;5.25;;;3.92;;
20649;SDS011;10484;48.736;9.332;2022-11-11T01:06:23;5.00;;;4.20;;
20649;SDS011;10484;48.736;9.332;2022-11-11T01:08:49;5.50;;;4.57;;
20649;SDS011;10484;48.736;9.332;2022-11-11T01:11:16;4.73;;;3.80;;
20649;SDS011;10484;48.736;9.332;2022-11-11T01:13:44;4.97;;;3.25;;
20649;SDS011;10484;48.736;9.332;2022-11-11T01:16:11;6.03;;;3.92;;
20649;SDS011;10484;48.736;9.332;2022-11-11T01:18:42;3.95;;;3.22;;
20649;SDS011;10484;48.736;9.332;2022-11-11T01:21:10;5.70;;;4.20;;
20649;SDS011;10484;48.736;9.332;2022-11-11T01:23:38;7.07;;;4.85;;
20649;SDS011;10484;48.736;9.332;2022-11-11T01:26:06;6.55;;;4.38;;
20649;SDS011;10484;48.736;9.332;2022-11-11T01:28:37;6.93;;;4.05;;
20649;SDS011;10484;48.736;9.332;2022-11-11T01:31:04;10.27;;;5.60;;
20649;SDS011;10484;48.736;9.332;2022-11-11T01:33:32;5.65;;;4.10;;
20649;SDS011;10484;48.736;9.332;2022-11-11T01:36:17;4.10;;;3.78;;
20649;SDS011;10484;48.736;9.332;2022-11-11T01:38:47;5.72;;;3.72;;
20649;SDS011;10484;48.736;9.332;2022-11-11T01:41:18;11.73;;;4.47;;
20649;SDS011;10484;48.736;9.332;2022-11-11T01:46:49;5.40;;;4.00;;
20649;SDS011;10484;48.736;9.332;2022-11-11T01:49:33;5.63;;;3.60;;
20649;SDS011;10484;48.736;9.332;2022-11-11T01:52:12;5.43;;;3.80;;
20649;SDS011;10484;48.736;9.332;2022-11-11T01:54:51;6.63;;;3.88;;
20649;SDS011;10484;48.736;9.332;2022-11-11T01:57:30;4.50;;;3.53;;
20649;SDS011;10484;48.736;9.332;2022-11-11T02:00:09;4.68;;;3.95;;
20649;SDS011;10484;48.736;9.332;2022-11-11T02:02:42;3.40;;;3.10;;
20649;SDS011;10484;48.736;9.332;2022-11-11T02:05:10;5.65;;;3.63;;
20649;SDS011;10484;48.736;9.332;2022-11-11T02:07:57;6.00;;;3.47;;
20649;SDS011;10484;48.736;9.332;2022-11-11T02:10:26;6.68;;;3.50;;
20649;SDS011;10484;48.736;9.332;2022-11-11T02:12:54;7.35;;;4.00;;
20649;SDS011;10484;48.736;9.332;2022-11-11T02:15:38;4.22;;;3.60;;
20649;SDS011;10484;48.736;9.332;2022-11-11T02:18:04;8.13;;;4.18;;
20649;SDS011;10484;48.736;9.332;2022-11-11T02:20:32;5.97;;;3.40;;
20649;SDS011;10484;48.736;9.332;2022-11-11T02:23:18;13.77;;;5.70;;
20649;SDS011;10484;48.736;9.332;2022-11-11T02:25:48;4.05;;;3.42;;
20649;SDS011;10484;48.736;9.332;2022-11-11T02:28:16;5.13;;;3.47;;
20649;SDS011;10484;48.736;9.332;2022-11-11T02:30:43;5.30;;;3.20;;
20649;SDS011;10484;48.736;9.332;2022-11-11T02:33:09;4.00;;;3.13;;
20649;SDS011;10484;48.736;9.332;2022-11-11T02:35:36;5.53;;;3.60;;
20649;SDS011;10484;48.736;9.332;2022-11-11T02:38:05;7.07;;;4.15;;
20649;SDS011;10484;48.736;9.332;2022-11-11T02:40:44;6.60;;;3.88;;
20649;SDS011;10484;48.736;9.332;2022-11-11T02:43:32;6.15;;;3.72;;
20649;SDS011;10484;48.736;9.332;2022-11-11T02:45:59;7.20;;;4.60;;
20649;SDS011;10484;48.736;9.332;2022-11-11T02:48:26;5.70;;;3.85;;
20649;SDS011;10484;48.736;9.332;2022-11-11T02:50:52;6.17;;;3.90;;
20649;SDS011;10484;48.736;9.332;2022-11-11T02:53:18;6.57;;;4.70;;
20649;SDS011;10484;48.736;9.332;2022-11-11T02:55:44;5.55;;;3.88;;
20649;SDS011;10484;48.736;9.332;2022-11-11T02:58:10;5.70;;;4.37;;
20649;SDS011;10484;48.736;9.332;2022-11-11T03:00:37;5.80;;;4.18;;
20649;SDS011;10484;48.736;9.332;2022-11-11T03:03:02;6.83;;;4.37;;
20649;SDS011;10484;48.736;9.332;2022-11-11T03:05:28;8.50;;;5.37;;
20649;SDS011;10484;48.736;9.332;2022-11-11T03:07:54;6.13;;;4.27;;
20649;SDS011;10484;48.736;9.332;2022-11-11T03:10:19;8.97;;;5.20;;
20649;SDS011;10484;48.736;9.332;2022-11-11T03:12:45;13.80;;;5.70;;
20649;SDS011;10484;48.736;9.332;2022-11-11T03:15:11;6.53;;;5.37;;
20649;SDS011;10484;48.736;9.332;2022-11-11T03:17:36;17.00;;;5.90;;
20649;SDS011;10484;48.736;9.332;2022-11-11T03:23:07;24.30;;;6.43;;
20649;SDS011;10484;48.736;9.332;2022-11-11T03:25:38;20.48;;;7.50;;
20649;SDS011;10484;48.736;9.332;2022-11-11T03:28:12;24.77;;;8.10;;
20649;SDS011;10484;48.736;9.332;2022-11-11T03:30:40;16.38;;;8.05;;
20649;SDS011;10484;48.736;9.332;2022-11-11T03:33:08;31.33;;;7.35;;
20649;SDS011;10484;48.736;9.332;2022-11-11T03:35:34;13.07;;;7.60;;
20649;SDS011;10484;48.736;9.332;2022-11-11T03:38:00;14.80;;;7.23;;
20649;SDS011;10484;48.736;9.332;2022-11-11T03:40:45;14.20;;;7.45;;
20649;SDS011;10484;48.736;9.332;2022-11-11T03:43:12;11.13;;;7.85;;
20649;SDS011;10484;48.736;9.332;2022-11-11T03:45:39;15.07;;;7.13;;
20649;SDS011;10484;48.736;9.332;2022-11-11T03:48:05;11.15;;;7.75;;
20649;SDS011;10484;48.736;9.332;2022-11-11T03:50:31;10.60;;;7.37;;
20649;SDS011;10484;48.736;9.332;2022-11-11T03:52:57;11.47;;;6.67;;
20649;SDS011;10484;48.736;9.332;2022-11-11T03:55:23;8.93;;;6.30;;
20649;SDS011;10484;48.736;9.332;2022-11-11T03:57:48;7.60;;;6.00;;
20649;SDS011;10484;48.736;9.332;2022-11-11T04:00:18;11.80;;;6.30;;
20649;SDS011;10484;48.736;9.332;2022-11-11T04:02:46;9.65;;;6.53;;
20649;SDS011;10484;48.736;9.332;2022-11-11T04:05:30;9.55;;;7.03;;
20649;SDS011;10484;48.736;9.332;2022-11-11T04:08:15;11.25;;;7.72;;
20649;SDS011;10484;48.736;9.332;2022-11-11T04:11:11;9.50;;;6.68;;
20649;SDS011;10484;48.736;9.332;2022-11-11T04:13:42;11.55;;;6.85;;
20649;SDS011;10484;48.736;9.332;2022-11-11T04:16:29;11.15;;;6.75;;
20649;SDS011;10484;48.736;9.332;2022-11-11T04:18:55;8.73;;;6.40;;
20649;SDS011;10484;48.736;9.332;2022-11-11T04:21:39;11.30;;;6.93;;
20649;SDS011;10484;48.736;9.332;2022-11-11T04:24:08;9.85;;;6.50;;
20649;SDS011;10484;48.736;9.332;2022-11-11T04:26:57;12.43;;;6.55;;
20649;SDS011;10484;48.736;9.332;2022-11-11T04:29:24;8.90;;;7.00;;
20649;SDS011;10484;48.736;9.332;2022-11-11T04:31:56;12.35;;;6.70;;
20649;SDS011;10484;48.736;9.332;2022-11-11T04:34:42;13.13;;;7.07;;
20649;SDS011;10484;48.736;9.332;2022-11-11T04:37:09;11.40;;;6.45;;
20649;SDS011;10484;48.736;9.332;2022-11-11T04:39:36;15.43;;;7.53;;
20649;SDS011;10484;48.736;9.332;2022-11-11T04:42:20;9.40;;;5.90;;
20649;SDS011;10484;48.736;9.332;2022-11-11T04:44:47;11.52;;;6.43;;
20649;SDS011;10484;48.736;9.332;2022-11-11T04:47:31;9.90;;;5.22;;
20649;SDS011;10484;48.736;9.332;2022-11-11T04:49:57;6.20;;;4.57;;
20649;SDS011;10484;48.736;9.332;2022-11-11T04:52:22;7.30;;;5.13;;
20649;SDS011;10484;48.736;9.332;2022-11-11T04:54:51;21.40;;;5.93;;
20649;SDS011;10484;48.736;9.332;2022-11-11T04:57:39;13.35;;;6.55;;
20649;SDS011;10484;48.736;9.332;2022-11-11T05:00:07;19.15;;;6.40;;
20649;SDS011;10484;48.736;9.332;2022-11-11T05:02:34;10.05;;;5.03;;
20649;SDS011;10484;48.736;9.332;2022-11-11T05:05:18;10.45;;;5.65;;
20649;SDS011;10484;48.736;9.332;2022-11-11T05:07:44;7.60;;;5.60;;
20649;SDS011;10484;48.736;9.332;2022-11-11T05:10:28;9.82;;;5.57;;
20649;SDS011;10484;48.736;9.332;2022-11-11T05:12:54;11.67;;;4.53;;
20649;SDS011;10484;48.736;9.332;2022-11-11T05:15:41;16.05;;;5.88;;
20649;SDS011;10484;48.736;9.332;2022-11-11T05:18:26;15.38;;;5.25;;
20649;SDS011;10484;48.736;9.332;2022-11-11T05:21:14;12.95;;;6.10;;
20649;SDS011;10484;48.736;9.332;2022-11-11T05:23:44;9.25;;;5.90;;
20649;SDS011;10484;48.736;9.332;2022-11-11T05:26:29;10.25;;;6.15;;
20649;SDS011;10484;48.736;9.332;2022-11-11T05:28:55;14.90;;;6.00;;
20649;SDS011;10484;48.736;9.332;2022-11-11T05:31:20;13.57;;;5.93;;
20649;SDS011;10484;48.736;9.332;2022-11-11T05:33:46;15.20;;;7.07;;
20649;SDS011;10484;48.736;9.332;2022-11-11T05:36:11;20.30;;;7.37;;
20649;SDS011;10484;48.736;9.332;2022-11-11T05:38:37;12.90;;;7.07;;
20649;SDS011;10484;48.736;9.332;2022-11-11T05:41:03;11.03;;;6.70;;
20649;SDS011;10484;48.736;9.332;2022-11-11T05:43:28;12.70;;;6.07;;
20649;SDS011;10484;48.736;9.332;2022-11-11T05:45:54;9.03;;;6.17;;
20649;SDS011;10484;48.736;9.332;2022-11-11T05:48:19;8.83;;;6.23;;
20649;SDS011;10484;48.736;9.332;2022-11-11T05:50:45;14.50;;;6.30;;
20649;SDS011;10484;48.736;9.332;2022-11-11T05:53:11;11.20;;;5.90;;
20649;SDS011;10484;48.736;9.332;2022-11-11T05:55:36;9.00;;;5.37;;
20649;SDS011;10484;48.736;9.332;2022-11-11T05:58:02;21.47;;;6.47;;
20649;SDS011;10484;48.736;9.332;2022-11-11T06:00:27;10.10;;;6.80;;
20649;SDS011;10484;48.736;9.332;2022-11-11T06:02:53;11.57;;;6.40;;
20649;SDS011;10484;48.736;9.332;2022-11-11T06:05:19;18.23;;;6.80;;
20649;SDS011;10484;48.736;9.332;2022-11-11T06:07:45;10.57;;;6.00;;
20649;SDS011;10484;48.736;9.332;2022-11-11T06:10:10;9.80;;;5.53;;
20649;SDS011;10484;48.736;9.332;2022-11-11T06:12:54;12.15;;;6.65;;
20649;SDS011;10484;48.736;9.332;2022-11-11T06:15:28;13.98;;;6.53;;
20649;SDS011;10484;48.736;9.332;2022-11-11T06:17:58;15.82;;;5.07;;
20649;SDS011;10484;48.736;9.332;2022-11-11T06:20:24;5.57;;;4.40;;
20649;SDS011;10484;48.736;9.332;2022-11-11T06:22:50;9.70;;;5.38;;
20649;SDS011;10484;48.736;9.332;2022-11-11T06:25:25;8.20;;;5.03;;
20649;SDS011;10484;48.736;9.332;2022-11-11T06:28:11;7.95;;;5.13;;
20649;SDS011;10484;48.736;9.332;2022-11-11T06:30:38;6.50;;;5.45;;
20649;SDS011;10484;48.736;9.332;2022-11-11T06:33:04;9.82;;;5.25;;
20649;SDS011;10484;48.736;9.332;2022-11-11T06:35:32;9.73;;;5.45;;
20649;SDS011;10484;48.736;9.332;2022-11-11T06:37:59;9.50;;;5.75;;
20649;SDS011;10484;48.736;9.332;2022-11-11T06:40:25;5.80;;;4.80;;
20649;SDS011;10484;48.736;9.332;2022-11-11T06:42:50;9.03;;;5.60;;
20649;SDS011;10484;48.736;9.332;2022-11-11T06:45:16;7.40;;;5.30;;
20649;SDS011;10484;48.736;9.332;2022-11-11T06:47:42;8.27;;;5.45;;
20649;SDS011;10484;48.736;9.332;2022-11-11T06:50:08;8.47;;;6.00;;
20649;SDS011;10484;48.736;9.332;2022-11-11T06:52:34;7.90;;;5.50;;
20649;SDS011;10484;48.736;9.332;2022-11-11T06:54:59;10.37;;;6.03;;
20649;SDS011;10484;48.736;9.332;2022-11-11T06:57:25;7.90;;;4.90;;
20649;SDS011;10484;48.736;9.332;2022-11-11T06:59:51;6.60;;;5.63;;
20649;SDS011;10484;48.736;9.332;2022-11-11T07:02:16;7.50;;;6.00;;
20649;SDS011;10484;48.736;9.332;2022-11-11T07:04:42;7.67;;;5.80;;
20649;SDS011;10484;48.736;9.332;2022-11-11T07:07:07;9.77;;;6.27;;
20649;SDS011;10484;48.736;9.332;2022-11-11T07:09:33;8.10;;;5.73;;
20649;SDS011;10484;48.736;9.332;2022-11-11T07:11:59;8.30;;;6.07;;
20649;SDS011;10484;48.736;9.332;2022-11-11T07:14:25;8.15;;;5.50;;
20649;SDS011;10484;48.736;9.332;2022-11-11T07:16:51;7.73;;;5.13;;
20649;SDS011;10484;48.736;9.332;2022-11-11T07:19:17;8.87;;;6.30;;
20649;SDS011;10484;48.736;9.332;2022-11-11T07:21:42;12.37;;;7.30;;
20649;SDS011;10484;48.736;9.332;2022-11-11T07:24:08;8.00;;;6.20;;
20649;SDS011;10484;48.736;9.332;2022-11-11T07:26:34;8.27;;;6.17;;
20649;SDS011;10484;48.736;9.332;2022-11-11T07:28:59;8.57;;;5.80;;
20649;SDS011;10484;48.736;9.332;2022-11-11T07:31:25;10.70;;;6.70;;
20649;SDS011;10484;48.736;9.332;2022-11-11T07:33:50;8.67;;;6.00;;
20649;SDS011;10484;48.736;9.332;2022-11-11T07:36:16;7.73;;;6.13;;
20649;SDS011;10484;48.736;9.332;2022-11-11T07:38:42;7.40;;;5.70;;
20649;SDS011;10484;48.736;9.332;2022-11-11T07:41:07;15.77;;;6.97;;
20649;SDS011;10484;48.736;9.332;2022-11-11T07:43:33;7.20;;;5.27;;
20649;SDS011;10484;48.736;9.332;2022-11-11T07:45:58;7.40;;;6.13;;
20649;SDS011;10484;48.736;9.332;2022-11-11T07:48:24;11.83;;;6.63;;
20649;SDS011;10484;48.736;9.332;2022-11-11T07:50:52;11.73;;;6.20;;
20649;SDS011;10484;48.736;9.332;2022-11-11T07:53:18;9.75;;;5.10;;
20649;SDS011;10484;48.736;9.332;2022-11-11T07:55:44;9.17;;;5.97;;
20649;SDS011;10484;48.736;9.332;2022-11-11T07:58:10;11.43;;;6.47;;
20649;SDS011;10484;48.736;9.332;2022-11-11T08:00:36;11.85;;;6.28;;
20649;SDS011;10484;48.736;9.332;2022-11-11T08:03:02;9.07;;;6.47;;
20649;SDS011;10484;48.736;9.332;2022-11-11T08:05:29;10.63;;;6.95;;
20649;SDS011;10484;48.736;9.332;2022-11-11T08:07:54;7.87;;;5.90;;
20649;SDS011;10484;48.736;9.332;2022-11-11T08:10:20;11.43;;;6.73;;
20649;SDS011;10484;48.736;9.332;2022-11-11T08:12:45;9.57;;;5.70;;
20649;SDS011;10484;48.736;9.332;2022-11-11T08:15:36;11.65;;;7.38;;
20649;SDS011;10484;48.736;9.332;2022-11-11T08:18:02;11.93;;;5.80;;
20649;SDS011;10484;48.736;9.332;2022-11-11T08:20:27;8.40;;;6.77;;
20649;SDS011;10484;48.736;9.332;2022-11-11T08:22:53;11.85;;;7.50;;
20649;SDS011;10484;48.736;9.332;2022-11-11T08:25:22;9.18;;;6.43;;
20649;SDS011;10484;48.736;9.332;2022-11-11T08:27:48;17.05;;;7.45;;
20649;SDS011;10484;48.736;9.332;2022-11-11T08:30:14;11.27;;;7.40;;
20649;SDS011;10484;48.736;9.332;2022-11-11T08:32:39;9.37;;;7.37;;
20649;SDS011;10484;48.736;9.332;2022-11-11T08:35:05;8.20;;;6.10;;
20649;SDS011;10484;48.736;9.332;2022-11-11T08:37:31;8.32;;;6.85;;
20649;SDS011;10484;48.736;9.332;2022-11-11T08:39:57;9.43;;;6.53;;
20649;SDS011;10484;48.736;9.332;2022-11-11T08:42:23;11.80;;;7.17;;
20649;SDS011;10484;48.736;9.332;2022-11-11T08:44:49;10.17;;;6.50;;
20649;SDS011;10484;48.736;9.332;2022-11-11T08:47:15;11.32;;;7.45;;
20649;SDS011;10484;48.736;9.332;2022-11-11T08:49:41;11.70;;;7.78;;
20649;SDS011;10484;48.736;9.332;2022-11-11T08:52:07;11.70;;;8.20;;
20649;SDS011;10484;48.736;9.332;2022-11-11T08:54:33;10.73;;;7.40;;
20649;SDS011;10484;48.736;9.332;2022-11-11T08:56:58;12.03;;;7.57;;
20649;SDS011;10484;48.736;9.332;2022-11-11T08:59:24;9.70;;;6.70;;
20649;SDS011;10484;48.736;9.332;2022-11-11T09:01:50;9.10;;;7.10;;
20649;SDS011;10484;48.736;9.332;2022-11-11T09:04:15;10.90;;;7.73;;
20649;SDS011;10484;48.736;9.332;2022-11-11T09:06:41;15.50;;;7.97;;
20649;SDS011;10484;48.736;9.332;2022-11-11T09:09:10;11.25;;;8.90;;
20649;SDS011;10484;48.736;9.332;2022-11-11T09:11:35;11.77;;;8.63;;
20649;SDS011;10484;48.736;9.332;2022-11-11T09:14:01;8.77;;;7.27;;
20649;SDS011;10484;48.736;9.332;2022-11-11T09:16:27;10.87;;;7.20;;
20649;SDS011;10484;48.736;9.332;2022-11-11T09:18:53;11.50;;;8.20;;
20649;SDS011;10484;48.736;9.332;2022-11-11T09:21:18;8.30;;;6.40;;
20649;SDS011;10484;48.736;9.332;2022-11-11T09:23:44;8.30;;;6.70;;
20649;SDS011;10484;48.736;9.332;2022-11-11T09:26:10;13.03;;;7.63;;
20649;SDS011;10484;48.736;9.332;2022-11-11T09:28:35;8.50;;;7.03;;
20649;SDS011;10484;48.736;9.332;2022-11-11T09:31:01;7.73;;;6.00;;
20649;SDS011;10484;48.736;9.332;2022-11-11T09:33:27;8.85;;;6.45;;
20649;SDS011;10484;48.736;9.332;2022-11-11T09:35:53;8.65;;;6.65;;
20649;SDS011;10484;48.736;9.332;2022-11-11T09:38:21;8.17;;;5.63;;
20649;SDS011;10484;48.736;9.332;2022-11-11T09:43:34;8.37;;;6.50;;
20649;SDS011;10484;48.736;9.332;2022-11-11T09:46:19;7.70;;;6.20;;
20649;SDS011;10484;48.736;9.332;2022-11-11T09:54:36;6.10;;;4.87;;
20649;SDS011;10484;48.736;9.332;2022-11-11T09:57:13;11.43;;;6.00;;
20649;SDS011;10484;48.736;9.332;2022-11-11T09:59:47;9.10;;;5.77;;
20649;SDS011;10484;48.736;9.332;2022-11-11T10:02:34;5.53;;;4.33;;
20649;SDS011;10484;48.736;9.332;2022-11-11T10:05:12;6.77;;;4.57;;
20649;SDS011;10484;48.736;9.332;2022-11-11T10:10:29;8.30;;;5.00;;
20649;SDS011;10484;48.736;9.332;2022-11-11T10:13:15;10.50;;;4.93;;
20649;SDS011;10484;48.736;9.332;2022-11-11T10:15:58;6.83;;;5.10;;
20649;SDS011;10484;48.736;9.332;2022-11-11T10:21:35;8.37;;;5.30;;
20649;SDS011;10484;48.736;9.332;2022-11-11T10:24:02;8.93;;;6.27;;
20649;SDS011;10484;48.736;9.332;2022-11-11T10:26:39;7.30;;;5.63;;
20649;SDS011;10484;48.736;9.332;2022-11-11T10:29:14;6.40;;;5.40;;
20649;SDS011;10484;48.736;9.332;2022-11-11T10:31:43;7.20;;;5.90;;
20649;SDS011;10484;48.736;9.332;2022-11-11T10:34:35;6.73;;;5.00;;
20649;SDS011;10484;48.736;9.332;2022-11-11T10:37:02;6.97;;;5.60;;
20649;SDS011;10484;48.736;9.332;2022-11-11T10:42:25;7.70;;;5.30;;
20649;SDS011;10484;48.736;9.332;2022-11-11T10:44:52;8.57;;;5.57;;
20649;SDS011;10484;48.736;9.332;2022-11-11T10:50:00;6.77;;;5.90;;
20649;SDS011;10484;48.736;9.332;2022-11-11T10:52:32;5.80;;;5.20;;
20649;SDS011;10484;48.736;9.332;2022-11-11T10:55:04;9.07;;;6.10;;
20649;SDS011;10484;48.736;9.332;2022-11-11T10:57:45;6.90;;;5.10;;
20649;SDS011;10484;48.736;9.332;2022-11-11T11:00:20;7.83;;;5.60;;
20649;SDS011;10484;48.736;9.332;2022-11-11T11:02:49;8.27;;;5.37;;
20649;SDS011;10484;48.736;9.332;2022-11-11T11:05:39;6.13;;;5.43;;
20649;SDS011;10484;48.736;9.332;2022-11-11T11:08:21;11.67;;;5.47;;
20649;SDS011;10484;48.736;9.332;2022-11-11T11:10:57;8.00;;;5.20;;
20649;SDS011;10484;48.736;9.332;2022-11-11T11:14:09;6.07;;;5.00;;
20649;SDS011;10484;48.736;9.332;2022-11-11T11:16:17;8.40;;;5.40;;
20649;SDS011;10484;48.736;9.332;2022-11-11T11:24:20;9.33;;;8.20;;
20649;SDS011;10484;48.736;9.332;2022-11-11T11:26:49;11.20;;;9.30;;
20649;SDS011;10484;48.736;9.332;2022-11-11T11:29:29;9.70;;;7.40;;
20649;SDS011;10484;48.736;9.332;2022-11-11T11:34:49;13.50;;;10.10;;
20649;SDS011;10484;48.736;9.332;2022-11-11T11:37:17;6.90;;;5.60;;
20649;SDS011;10484;48.736;9.332;2022-11-11T11:39:44;6.80;;;5.30;;
20649;SDS011;10484;48.736;9.332;2022-11-11T11:42:29;7.60;;;4.87;;
20649;SDS011;10484;48.736;9.332;2022-11-11T11:44:56;9.00;;;5.60;;
20649;SDS011;10484;48.736;9.332;2022-11-11T11:53:00;5.90;;;4.87;;
20649;SDS011;10484;48.736;9.332;2022-11-11T11:55:41;7.97;;;4.30;;
20649;SDS011;10484;48.736;9.332;2022-11-11T12:00:45;6.33;;;5.20;;
20649;SDS011;10484;48.736;9.332;2022-11-11T12:03:44;5.30;;;4.87;;
20649;SDS011;10484;48.736;9.332;2022-11-11T12:06:27;7.30;;;4.77;;
20649;SDS011;10484;48.736;9.332;2022-11-11T12:14:52;9.33;;;5.33;;
20649;SDS011;10484;48.736;9.332;2022-11-11T12:20:13;5.90;;;5.27;;
20649;SDS011;10484;48.736;9.332;2022-11-11T12:28:35;6.17;;;4.33;;
20649;SDS011;10484;48.736;9.332;2022-11-11T12:33:40;6.30;;;4.97;;
20649;SDS011;10484;48.736;9.332;2022-11-11T12:50:21;7.07;;;5.70;;
20649;SDS011;10484;48.736;9.332;2022-11-11T12:58:16;5.70;;;4.30;;
20649;SDS011;10484;48.736;9.332;2022-11-11T13:03:39;10.03;;;5.80;;
20649;SDS011;10484;48.736;9.332;2022-11-11T13:06:30;5.10;;;4.60;;
20649;SDS011;10484;48.736;9.332;2022-11-11T13:17:01;6.50;;;2.67;;
20649;SDS011;10484;48.736;9.332;2022-11-11T13:19:38;3.83;;;2.37;;
20649;SDS011;10484;48.736;9.332;2022-11-11T13:22:18;3.10;;;2.80;;
20649;SDS011;10484;48.736;9.332;2022-11-11T13:24:50;3.77;;;2.70;;
20649;SDS011;10484;48.736;9.332;2022-11-11T13:27:29;3.30;;;2.77;;
20649;SDS011;10484;48.736;9.332;2022-11-11T13:30:05;2.60;;;2.20;;
20649;SDS011;10484;48.736;9.332;2022-11-11T13:32:34;3.47;;;2.90;;
20649;SDS011;10484;48.736;9.332;2022-11-11T13:35:44;5.83;;;3.50;;
20649;SDS011;10484;48.736;9.332;2022-11-11T13:38:08;3.63;;;3.30;;
20649;SDS011;10484;48.736;9.332;2022-11-11T13:40:57;4.40;;;3.40;;
20649;SDS011;10484;48.736;9.332;2022-11-11T13:43:28;3.60;;;2.93;;
20649;SDS011;10484;48.736;9.332;2022-11-11T13:45:55;3.77;;;2.57;;
20649;SDS011;10484;48.736;9.332;2022-11-11T13:48:25;5.40;;;3.03;;
20649;SDS011;10484;48.736;9.332;2022-11-11T13:53:49;4.40;;;3.00;;
20649;SDS011;10484;48.736;9.332;2022-11-11T13:56:21;4.73;;;3.27;;
20649;SDS011;10484;48.736;9.332;2022-11-11T13:58:50;7.70;;;3.07;;
20649;SDS011;10484;48.736;9.332;2022-11-11T14:01:18;3.13;;;2.83;;
20649;SDS011;10484;48.736;9.332;2022-11-11T14:13:48;5.07;;;2.80;;
20649;SDS011;10484;48.736;9.332;2022-11-11T14:16:56;3.63;;;3.20;;
20649;SDS011;10484;48.736;9.332;2022-11-11T14:24:22;4.27;;;3.20;;
20649;SDS011;10484;48.736;9.332;2022-11-11T14:27:01;18.63;;;3.83;;
20649;SDS011;10484;48.736;9.332;2022-11-11T14:29:51;4.40;;;2.53;;
20649;SDS011;10484;48.736;9.332;2022-11-11T14:35:23;4.53;;;2.60;;
20649;SDS011;10484;48.736;9.332;2022-11-11T14:38:02;2.80;;;2.00;;
20649;SDS011;10484;48.736;9.332;2022-11-11T14:40:30;4.40;;;2.97;;
20649;SDS011;10484;48.736;9.332;2022-11-11T14:42:57;3.97;;;2.43;;
20649;SDS011;10484;48.736;9.332;2022-11-11T14:47:56;3.50;;;2.60;;
20649;SDS011;10484;48.736;9.332;2022-11-11T14:53:14;3.23;;;2.20;;
20649;SDS011;10484;48.736;9.332;2022-11-11T14:55:45;3.10;;;2.43;;
20649;SDS011;10484;48.736;9.332;2022-11-11T14:58:17;3.00;;;2.23;;
20649;SDS011;10484;48.736;9.332;2022-11-11T15:00:52;3.27;;;2.13;;
20649;SDS011;10484;48.736;9.332;2022-11-11T15:03:37;4.30;;;2.10;;
20649;SDS011;10484;48.736;9.332;2022-11-11T15:06:21;2.67;;;2.10;;
20649;SDS011;10484;48.736;9.332;2022-11-11T15:08:58;2.23;;;2.03;;
20649;SDS011;10484;48.736;9.332;2022-11-11T15:25:55;2.40;;;1.83;;
20649;SDS011;10484;48.736;9.332;2022-11-11T15:36:55;2.33;;;2.13;;
20649;SDS011;10484;48.736;9.332;2022-11-11T15:39:38;4.40;;;2.43;;
20649;SDS011;10484;48.736;9.332;2022-11-11T15:42:56;2.37;;;2.10;;
20649;SDS011;10484;48.736;9.332;2022-11-11T15:45:03;2.40;;;2.20;;
20649;SDS011;10484;48.736;9.332;2022-11-11T15:47:46;3.30;;;2.33;;
20649;SDS011;10484;48.736;9.332;2022-11-11T15:52:52;5.43;;;2.27;;
20649;SDS011;10484;48.736;9.332;2022-11-11T15:55:27;2.97;;;2.63;;
20649;SDS011;10484;48.736;9.332;2022-11-11T15:58:07;4.13;;;2.47;;
20649;SDS011;10484;48.736;9.332;2022-11-11T16:00:40;3.80;;;2.73;;
20649;SDS011;10484;48.736;9.332;2022-11-11T16:03:10;4.80;;;3.00;;
20649;SDS011;10484;48.736;9.332;2022-11-11T16:05:59;5.10;;;3.73;;
20649;SDS011;10484;48.736;9.332;2022-11-11T16:08:27;4.97;;;3.30;;
20649;SDS011;10484;48.736;9.332;2022-11-11T16:10:54;3.50;;;3.03;;
20649;SDS011;10484;48.736;9.332;2022-11-11T16:13:31;4.00;;;3.60;;
20649;SDS011;10484;48.736;9.332;2022-11-11T16:16:03;5.13;;;2.90;;
20649;SDS011;10484;48.736;9.332;2022-11-11T16:21:06;5.57;;;4.03;;
20649;SDS011;10484;48.736;9.332;2022-11-11T16:23:45;5.73;;;4.03;;
20649;SDS011;10484;48.736;9.332;2022-11-11T16:26:11;5.73;;;4.30;;
20649;SDS011;10484;48.736;9.332;2022-11-11T16:28:40;3.70;;;3.07;;
20649;SDS011;10484;48.736;9.332;2022-11-11T16:31:19;3.10;;;2.43;;
20649;SDS011;10484;48.736;9.332;2022-11-11T16:33:45;3.60;;;2.77;;
20649;SDS011;10484;48.736;9.332;2022-11-11T16:36:11;5.53;;;2.90;;
20649;SDS011;10484;48.736;9.332;2022-11-11T16:38:36;7.53;;;3.33;;
20649;SDS011;10484;48.736;9.332;2022-11-11T16:41:27;3.60;;;2.70;;
20649;SDS011;10484;48.736;9.332;2022-11-11T16:43:56;4.10;;;3.70;;
20649;SDS011;10484;48.736;9.332;2022-11-11T16:49:18;8.70;;;3.27;;
20649;SDS011;10484;48.736;9.332;2022-11-11T16:51:53;5.40;;;3.33;;
20649;SDS011;10484;48.736;9.332;2022-11-11T16:54:21;7.47;;;4.70;;
20649;SDS011;10484;48.736;9.332;2022-11-11T16:56:52;7.70;;;5.70;;
20649;SDS011;10484;48.736;9.332;2022-11-11T16:59:23;6.40;;;4.07;;
20649;SDS011;10484;48.736;9.332;2022-11-11T17:01:59;6.30;;;3.40;;
20649;SDS011;10484;48.736;9.332;2022-11-11T17:04:25;5.77;;;4.03;;
20649;SDS011;10484;48.736;9.332;2022-11-11T17:07:46;5.00;;;3.50;;
20649;SDS011;10484;48.736;9.332;2022-11-11T17:12:32;5.73;;;3.77;;
20649;SDS011;10484;48.736;9.332;2022-11-11T17:14:59;5.17;;;3.30;;
20649;SDS011;10484;48.736;9.332;2022-11-11T17:17:25;6.43;;;4.00;;
20649;SDS011;10484;48.736;9.332;2022-11-11T17:19:59;4.17;;;3.27;;
20649;SDS011;10484;48.736;9.332;2022-11-11T17:22:34;3.40;;;3.10;;
20649;SDS011;10484;48.736;9.332;2022-11-11T17:25:00;4.13;;;3.13;;
20649;SDS011;10484;48.736;9.332;2022-11-11T17:27:29;6.20;;;4.00;;
20649;SDS011;10484;48.736;9.332;2022-11-11T17:29:55;7.20;;;3.67;;
20649;SDS011;10484;48.736;9.332;2022-11-11T17:32:21;4.50;;;4.10;;
20649;SDS011;10484;48.736;9.332;2022-11-11T17:34:47;7.37;;;3.67;;
20649;SDS011;10484;48.736;9.332;2022-11-11T17:37:13;5.20;;;3.73;;